Terminal Aerodrome Forecast
Issued by NWS New Orleans/Baton Rouge, LA

Home | Current Version | Previous Version | Text Only | Print | Product List | Glossary On
Versions: 1 2 3 4 5 6 7 8 9 10 11 12 13
000
FTUS44 KLIX 012300
TAFBTR
TAF
KBTR 012336Z 0200/0224 07007KT P6SM BKN045
     FM021000 00000KT P6SM SCT150
     FM021400 17006KT P6SM SCT040 PROB30 0216/0220 VRB24KT 2SM TSRA
      BKN025CB=

USA.gov is the U.S. government's official web portal to all federal, state and local government web resources and services.